Time;durP1;ratioP1;P1;durP2;ratioP2;P2;SDS_P1;SDS_P2;PMS_P1;PMS_P2;Temp;Humidity;BMP_temperature;BMP_pressure;BME280_temperature;BME280_humidity;BME280_pressure;Samples;Min_cycle;Max_cycle;Signal;HPM_P1;HPM_P2
2021/10/25 00:01:04;;;;;;;3.40;2.02;;;;;;;3.94;72.53;101271.86;1625946;85;21036;-73
2021/10/25 00:03:31;;;;;;;3.42;2.00;;;;;;;3.91;72.81;101275.36;1672657;84;21053;-76
2021/10/25 00:05:59;;;;;;;2.30;1.80;;;;;;;3.90;73.05;101271.03;1576808;89;21008;-75
2021/10/25 00:08:25;;;;;;;6.35;2.50;;;;;;;3.89;73.18;101274.69;1634414;87;21118;-71
2021/10/25 00:10:51;;;;;;;2.95;2.15;;;;;;;3.88;73.30;101266.40;1680779;85;21856;-68
2021/10/25 00:13:19;;;;;;;3.70;2.50;;;;;;;3.86;73.38;101265.22;1664803;85;20901;-71
2021/10/25 00:15:47;;;;;;;2.90;2.33;;;;;;;3.84;73.45;101270.36;1606966;88;21012;-70
2021/10/25 00:18:14;;;;;;;4.65;2.33;;;;;;;3.80;73.51;101266.38;1647833;85;20999;-73
2021/10/25 00:20:40;;;;;;;4.15;2.27;;;;;;;3.75;73.63;101270.04;1679899;85;21069;-77
2021/10/25 00:23:07;;;;;;;3.80;2.40;;;;;;;3.70;73.84;101269.20;1660213;85;21001;-74
2021/10/25 00:25:34;;;;;;;3.33;2.02;;;;;;;3.66;73.99;101271.05;1651131;85;21060;-75
2021/10/25 00:28:00;;;;;;;2.87;2.60;;;;;;;3.64;74.25;101269.90;1637132;87;21012;-74
2021/10/25 00:30:28;;;;;;;2.98;2.12;;;;;;;3.62;74.42;101270.55;1647485;87;21089;-73
2021/10/25 00:32:56;;;;;;;2.92;2.60;;;;;;;3.60;74.60;101276.52;1634989;85;22143;-73
2021/10/25 00:35:22;;;;;;;2.60;2.30;;;;;;;3.61;74.64;101281.34;1673424;85;21029;-76
2021/10/25 00:37:48;;;;;;;2.52;2.20;;;;;;;3.57;74.72;101285.34;1674921;85;21062;-76
2021/10/25 00:40:15;;;;;;;4.20;3.17;;;;;;;3.51;74.87;101279.68;1673547;85;21109;-76
2021/10/25 00:42:42;;;;;;;3.33;2.27;;;;;;;3.46;75.01;101284.66;1672640;85;21072;-73
2021/10/25 00:45:10;;;;;;;3.37;2.60;;;;;;;3.40;75.19;101280.52;1613778;88;21246;-75
2021/10/25 00:47:38;;;;;;;6.17;2.00;;;;;;;3.34;75.39;101276.69;1680805;85;20952;-74
2021/10/25 00:50:07;;;;;;;6.08;1.95;;;;;;;3.30;75.62;101275.84;1681144;85;21007;-75
2021/10/25 00:52:33;;;;;;;3.20;2.00;;;;;;;3.28;75.89;101278.66;1679882;85;21064;-71
2021/10/25 00:54:59;;;;;;;4.72;2.35;;;;;;;3.26;76.00;101273.98;1657467;85;21063;-73
2021/10/25 00:57:28;;;;;;;2.77;2.30;;;;;;;3.25;76.09;101276.83;1673600;85;21228;-74
2021/10/25 00:59:55;;;;;;;2.70;2.10;;;;;;;3.23;76.16;101276.98;1618446;86;21024;-75
2021/10/25 01:02:21;;;;;;;2.50;2.30;;;;;;;3.19;76.27;101279.64;1606446;89;21007;-74
2021/10/25 01:04:49;;;;;;;2.90;2.47;;;;;;;3.14;76.41;101287.77;1657178;85;21560;-75
2021/10/25 01:07:16;;;;;;;1.98;1.85;;;;;;;3.06;76.63;101284.11;1657543;85;21549;-74
2021/10/25 01:09:42;;;;;;;2.55;2.20;;;;;;;3.03;76.80;101288.89;1657630;85;21269;-74
2021/10/25 01:12:09;;;;;;;2.75;2.10;;;;;;;2.99;77.00;101287.55;1651856;85;21015;-73
2021/10/25 01:14:35;;;;;;;2.90;2.60;;;;;;;2.97;77.22;101286.38;1650941;85;20960;-78
2021/10/25 01:17:02;;;;;;;2.50;2.30;;;;;;;2.96;77.45;101288.72;1673422;85;20953;-72
2021/10/25 01:19:29;;;;;;;5.20;2.55;;;;;;;2.93;77.60;101283.72;1597774;89;21032;-73
2021/10/25 01:21:55;;;;;;;3.42;2.70;;;;;;;2.93;77.69;101293.50;1666291;85;21110;-75
2021/10/25 01:24:21;;;;;;;2.80;2.60;;;;;;;2.88;77.76;101291.33;1667912;84;21052;-72
2021/10/25 01:26:48;;;;;;;4.92;3.12;;;;;;;2.88;78.63;101295.32;1649588;85;21027;-75
2021/10/25 01:29:19;;;;;;;2.25;1.82;;;;;;;2.94;79.01;101296.50;1657988;85;21055;-73
2021/10/25 01:31:47;;;;;;;3.30;2.45;;;;;;;2.90;78.57;101299.98;1589009;89;21073;-74
2021/10/25 01:34:15;;;;;;;2.67;1.87;;;;;;;2.85;78.58;101306.28;1610663;87;21183;-75
2021/10/25 01:36:42;;;;;;;3.02;2.72;;;;;;;2.82;78.65;101315.08;1632946;87;21548;-75
2021/10/25 01:39:09;;;;;;;2.52;2.33;;;;;;;2.79;78.75;101320.69;1633089;87;20948;-73
2021/10/25 01:41:36;;;;;;;2.35;2.15;;;;;;;2.72;78.91;101311.21;1602535;88;21087;-71
2021/10/25 01:44:09;;;;;;;2.75;2.55;;;;;;;2.67;79.11;101316.66;1593307;88;21584;-71
2021/10/25 01:46:35;;;;;;;2.70;2.35;;;;;;;2.62;79.33;101319.80;1648162;85;21181;-71
2021/10/25 01:49:05;;;;;;;4.30;2.80;;;;;;;2.58;79.61;101323.27;1581254;89;21147;-72
2021/10/25 01:51:32;;;;;;;3.00;2.17;;;;;;;2.58;79.70;101323.77;1652198;85;21065;-72
2021/10/25 01:53:59;;;;;;;3.35;2.20;;;;;;;2.56;79.77;101333.20;1642661;85;21002;-72
2021/10/25 01:56:27;;;;;;;2.52;2.33;;;;;;;2.53;79.86;101329.55;1672239;85;21139;-72
2021/10/25 01:58:56;;;;;;;3.65;2.58;;;;;;;2.51;79.98;101335.50;1673302;85;20999;-73
2021/10/25 02:01:23;;;;;;;3.08;2.72;;;;;;;2.47;80.07;101336.80;1673289;85;21039;-73
2021/10/25 02:03:52;;;;;;;5.10;2.40;;;;;;;2.43;80.35;101333.30;1670966;85;21053;-72
2021/10/25 02:06:20;;;;;;;2.17;1.98;;;;;;;2.40;80.46;101333.62;1672854;85;21054;-73
2021/10/25 02:08:47;;;;;;;2.20;2.00;;;;;;;2.38;80.60;101335.59;1673304;85;21021;-72
2021/10/25 02:11:16;;;;;;;4.03;2.80;;;;;;;2.38;80.73;101337.75;1670018;85;21938;-73
2021/10/25 02:13:45;;;;;;;4.17;2.65;;;;;;;2.39;80.85;101332.78;1609174;87;21118;-71
2021/10/25 02:16:12;;;;;;;2.08;1.85;;;;;;;2.40;80.98;101340.26;1606617;88;21011;-73
2021/10/25 02:18:40;;;;;;;2.58;2.25;;;;;;;2.38;81.14;101341.73;1628952;86;21012;-73
2021/10/25 02:21:12;;;;;;;3.02;1.92;;;;;;;2.37;81.17;101345.86;1606733;88;21533;-74
2021/10/25 02:23:38;;;;;;;6.53;2.67;;;;;;;2.36;81.33;101342.37;1607099;88;21861;-73
2021/10/25 02:26:05;;;;;;;5.78;3.55;;;;;;;2.35;81.50;101339.89;1606475;87;21657;-73
2021/10/25 02:28:32;;;;;;;2.25;2.12;;;;;;;2.36;81.72;101339.72;1651947;86;20960;-75
2021/10/25 02:30:59;;;;;;;4.35;2.33;;;;;;;2.37;81.70;101341.87;1606630;89;21048;-74
2021/10/25 02:33:27;;;;;;;2.45;2.25;;;;;;;2.37;81.69;101342.72;1605208;88;21124;-73
2021/10/25 02:35:53;;;;;;;3.67;2.90;;;;;;;2.38;81.85;101351.52;1630008;86;21203;-73
2021/10/25 02:38:21;;;;;;;4.10;3.75;;;;;;;2.36;81.86;101353.48;1655971;85;21131;-72
2021/10/25 02:40:49;;;;;;;4.22;2.17;;;;;;;2.35;81.89;101360.61;1658212;85;20960;-73
2021/10/25 02:43:15;;;;;;;3.12;2.33;;;;;;;2.34;82.02;101368.26;1641319;85;21073;-74
2021/10/25 02:45:44;;;;;;;3.58;2.27;;;;;;;2.36;82.25;101364.09;1680741;84;21145;-74
2021/10/25 02:48:11;;;;;;;3.83;2.87;;;;;;;2.37;82.27;101364.45;1681135;84;21018;-75
2021/10/25 02:50:38;;;;;;;3.92;2.50;;;;;;;2.37;82.34;101374.58;1643416;85;21024;-72
2021/10/25 02:53:08;;;;;;;2.50;2.30;;;;;;;2.35;82.41;101376.54;1633194;87;21443;-71
2021/10/25 02:55:34;;;;;;;6.63;4.17;;;;;;;2.31;82.45;101378.34;1680507;85;21036;-74
2021/10/25 02:58:00;;;;;;;4.70;2.40;;;;;;;2.28;82.47;101379.98;1657223;85;21128;-72
2021/10/25 03:00:29;;;;;;;2.65;2.30;;;;;;;2.25;82.61;101374.99;1662432;85;21091;-74
2021/10/25 03:02:57;;;;;;;4.08;3.10;;;;;;;2.24;82.84;101386.10;1679985;85;21101;-74
2021/10/25 03:05:23;;;;;;;4.10;2.93;;;;;;;2.25;82.92;101378.98;1657326;85;21048;-73
2021/10/25 03:07:50;;;;;;;3.35;2.47;;;;;;;2.24;82.94;101378.63;1680782;85;21019;-73
2021/10/25 03:10:17;;;;;;;2.60;2.40;;;;;;;2.23;82.94;101379.13;1645028;86;21549;-74
2021/10/25 03:12:45;;;;;;;3.03;2.73;;;;;;;2.21;83.07;101375.77;1675964;85;22706;-74
2021/10/25 03:15:12;;;;;;;4.67;2.73;;;;;;;2.19;83.04;101374.62;1645979;86;21049;-75
2021/10/25 03:17:39;;;;;;;5.05;2.90;;;;;;;2.21;83.04;101383.73;1623811;87;20957;-75
2021/10/25 03:20:19;;;;;;;4.70;2.77;;;;;;;2.21;83.10;101384.27;1585333;89;21084;-76
2021/10/25 03:22:45;;;;;;;5.07;3.93;;;;;;;2.21;83.16;101381.08;1577396;89;21027;-76
2021/10/25 03:25:14;;;;;;;4.73;3.10;;;;;;;2.19;83.23;101385.73;1607822;87;21300;-76
2021/10/25 03:27:41;;;;;;;4.70;3.00;;;;;;;2.15;83.39;101382.56;1654508;85;21066;-75
2021/10/25 03:30:08;;;;;;;2.73;2.50;;;;;;;2.11;83.50;101386.48;1650435;85;21028;-75
2021/10/25 03:32:37;;;;;;;5.67;2.60;;;;;;;2.10;83.71;101387.48;1657847;85;21076;-75
2021/10/25 03:35:06;;;;;;;3.20;2.77;;;;;;;2.09;83.82;101384.48;1675634;85;21647;-75
2021/10/25 03:37:34;;;;;;;2.80;2.60;;;;;;;2.12;84.01;101391.30;1674033;85;21868;-77
2021/10/25 03:40:01;;;;;;;2.77;2.30;;;;;;;2.13;84.04;101389.83;1663079;85;20950;-77
2021/10/25 03:42:32;;;;;;;3.47;2.17;;;;;;;2.12;84.00;101385.50;1662143;85;21483;-78
2021/10/25 03:45:13;;;;;;;3.77;2.77;;;;;;;2.08;83.97;101388.12;1643735;85;21057;-76
2021/10/25 03:47:46;;;;;;;3.70;3.10;;;;;;;2.04;84.10;101394.73;1674781;84;21100;-77
2021/10/25 03:50:12;;;;;;;2.57;2.40;;;;;;;2.04;84.30;101397.88;1652488;85;21528;-76
2021/10/25 04:00:36;;;;;;;6.22;3.47;;;;;;;2.05;84.89;101395.56;1635738;85;21097;-77
2021/10/25 04:25:46;;;;;;;4.50;2.63;;;;;;;1.98;86.15;101416.56;1613776;85;21057;-74
2021/10/25 04:30:22;;;;;;;3.30;2.70;;;;;;;2.04;86.29;101423.92;1646148;87;20967;-76
2021/10/25 04:32:48;;;;;;;6.40;2.90;;;;;;;2.04;86.32;101425.25;1625553;87;21047;-72
2021/10/25 04:35:23;;;;;;;8.13;5.47;;;;;;;2.02;86.25;101422.39;1623989;87;21064;-74
2021/10/25 04:38:00;;;;;;;4.07;3.03;;;;;;;2.01;86.29;101424.23;1636591;85;21048;-72
2021/10/25 04:40:26;;;;;;;3.47;3.17;;;;;;;2.00;86.51;101422.56;1647472;85;21063;-74
2021/10/25 04:42:54;;;;;;;3.20;2.90;;;;;;;2.04;86.84;101424.41;1648725;85;21178;-73
2021/10/25 04:45:21;;;;;;;2.50;2.27;;;;;;;2.06;86.88;101424.58;1644621;86;21552;-73
2021/10/25 04:47:52;;;;;;;3.50;3.20;;;;;;;2.08;86.88;101422.63;1643699;86;21108;-73
2021/10/25 04:50:21;;;;;;;5.10;2.83;;;;;;;2.09;86.82;101418.16;1601947;89;21044;-72
2021/10/25 04:52:50;;;;;;;5.27;3.57;;;;;;;2.10;86.79;101415.36;1588704;87;21091;-72
2021/10/25 04:55:16;;;;;;;3.43;2.50;;;;;;;2.13;86.81;101426.14;1634732;87;21786;-74
2021/10/25 04:57:43;;;;;;;2.80;2.47;;;;;;;2.14;86.95;101425.17;1649904;85;21100;-73
2021/10/25 05:00:11;;;;;;;4.30;3.33;;;;;;;2.18;87.01;101431.34;1672597;85;21428;-77
2021/10/25 05:02:39;;;;;;;3.67;3.30;;;;;;;2.23;87.00;101436.19;1650075;85;21039;-74
2021/10/25 05:05:07;;;;;;;3.23;2.93;;;;;;;2.28;86.93;101440.55;1625284;87;21031;-74
2021/10/25 05:07:35;;;;;;;2.93;2.67;;;;;;;2.30;86.82;101439.08;1646225;87;21937;-75
2021/10/25 05:10:03;;;;;;;3.63;2.90;;;;;;;2.31;86.72;101432.76;1645972;86;21553;-74
2021/10/25 05:12:31;;;;;;;4.23;3.30;;;;;;;2.34;86.65;101439.95;1648165;85;21056;-73
2021/10/25 05:14:57;;;;;;;5.03;3.20;;;;;;;2.35;86.53;101438.94;1646002;86;20995;-75
2021/10/25 05:17:25;;;;;;;6.10;3.17;;;;;;;2.40;86.52;101445.95;1646112;87;21067;-76
2021/10/25 05:19:53;;;;;;;9.75;7.47;;;;;;;2.38;86.14;101451.92;1624470;85;22203;-75
2021/10/25 05:22:23;;;;;;;9.23;7.03;;;;;;;2.41;86.29;101457.41;1658128;85;20983;-74
2021/10/25 05:24:49;;;;;;;7.60;5.83;;;;;;;2.42;86.39;101463.91;1593419;89;21029;-74
2021/10/25 05:27:19;;;;;;;6.80;4.13;;;;;;;2.38;86.01;101459.89;1633040;86;21506;-75
2021/10/25 05:29:46;;;;;;;5.20;3.97;;;;;;;2.38;85.91;101468.34;1592495;89;21529;-75
2021/10/25 05:32:13;;;;;;;4.63;4.23;;;;;;;2.38;85.86;101470.51;1592244;89;21671;-76
2021/10/25 05:34:40;;;;;;;7.30;3.95;;;;;;;2.42;85.96;101472.36;1679384;85;20962;-76
2021/10/25 05:37:08;;;;;;;4.10;3.47;;;;;;;2.51;86.08;101477.58;1680803;84;21579;-73
2021/10/25 05:39:36;;;;;;;7.50;3.02;;;;;;;2.62;86.12;101483.98;1678249;85;20989;-73
2021/10/25 05:42:06;;;;;;;4.25;3.12;;;;;;;2.73;85.92;101478.93;1622966;86;21110;-74
2021/10/25 05:44:31;;;;;;;3.00;2.60;;;;;;;2.79;85.54;101485.42;1625139;85;21138;-74
2021/10/25 05:46:59;;;;;;;5.67;4.53;;;;;;;2.80;85.34;101483.11;1578884;89;20977;-74
2021/10/25 05:49:26;;;;;;;6.45;4.33;;;;;;;2.82;85.17;101489.11;1670648;85;21073;-72
2021/10/25 05:51:52;;;;;;;7.20;4.42;;;;;;;2.81;84.90;101492.27;1680270;85;21854;-76
2021/10/25 05:54:19;;;;;;;12.28;5.92;;;;;;;2.83;84.75;101498.23;1681029;85;21015;-76
2021/10/25 05:56:47;;;;;;;7.55;6.58;;;;;;;2.84;84.64;101492.43;1648798;85;21517;-74
2021/10/25 05:59:15;;;;;;;7.90;5.95;;;;;;;2.90;84.63;101500.63;1648856;85;21620;-73
2021/10/25 06:01:56;;;;;;;7.58;5.30;;;;;;;2.96;84.56;101501.34;1644076;86;21028;-73
2021/10/25 06:04:21;;;;;;;13.13;7.10;;;;;;;3.01;84.42;101507.02;1652326;85;21095;-73
2021/10/25 06:06:50;;;;;;;14.87;8.03;;;;;;;3.04;84.19;101508.03;1677522;85;21068;-72
2021/10/25 06:09:16;;;;;;;11.45;8.58;;;;;;;3.06;84.07;101516.70;1657219;85;21763;-74
2021/10/25 06:11:43;;;;;;;14.65;9.25;;;;;;;3.10;84.01;101511.05;1653107;85;21682;-76
2021/10/25 06:14:12;;;;;;;16.05;8.30;;;;;;;3.12;83.84;101521.85;1645988;86;21528;-77
2021/10/25 06:16:42;;;;;;;12.90;8.15;;;;;;;3.12;83.75;101518.39;1586883;89;21040;-77
2021/10/25 06:19:11;;;;;;;18.77;9.50;;;;;;;3.14;83.74;101521.22;1607333;88;21099;-72
2021/10/25 06:21:38;;;;;;;9.23;6.78;;;;;;;3.17;83.74;101526.20;1571310;89;21664;-70
2021/10/25 06:24:05;;;;;;;10.32;6.05;;;;;;;3.21;83.73;101527.59;1653372;86;21055;-75
2021/10/25 06:26:35;;;;;;;14.20;5.97;;;;;;;3.28;83.76;101531.27;1648449;86;20991;-75
2021/10/25 06:29:03;;;;;;;6.75;4.95;;;;;;;3.36;83.67;101531.30;1622410;86;21093;-73
2021/10/25 06:31:31;;;;;;;7.05;5.33;;;;;;;3.45;83.47;101538.86;1653287;85;21086;-78
2021/10/25 06:34:02;;;;;;;9.55;4.40;;;;;;;3.49;83.32;101539.71;1680097;85;21581;-76
2021/10/25 06:36:34;;;;;;;7.47;4.85;;;;;;;3.54;83.16;101538.40;1680686;85;21060;-74
2021/10/25 06:39:11;;;;;;;16.20;9.98;;;;;;;3.58;83.01;101530.43;1671263;85;20988;-74
2021/10/25 06:41:34;;;;;;;5.92;5.33;;;;;;;3.62;82.80;101534.44;1634290;87;21003;-74
2021/10/25 06:44:01;;;;;;;6.60;5.47;;;;;;;3.64;82.60;101532.46;1632990;87;21525;-75
2021/10/25 06:46:28;;;;;;;5.10;4.33;;;;;;;3.66;82.54;101537.95;1633099;87;22767;-74
2021/10/25 06:48:57;;;;;;;8.18;6.45;;;;;;;3.68;82.38;101535.97;1618063;88;21545;-73
2021/10/25 06:51:24;;;;;;;5.62;3.85;;;;;;;3.76;82.29;101537.82;1652002;85;21079;-71
2021/10/25 06:53:50;;;;;;;8.58;5.85;;;;;;;3.82;82.10;101543.34;1676352;85;21519;-72
2021/10/25 06:56:16;;;;;;;8.35;5.33;;;;;;;3.90;81.88;101546.52;1681864;85;21527;-72
2021/10/25 06:58:43;;;;;;;12.07;8.13;;;;;;;3.99;81.48;101543.39;1676047;85;21065;-74
2021/10/25 07:01:10;;;;;;;19.20;9.83;;;;;;;4.05;80.81;101543.59;1676328;85;21080;-72
2021/10/25 07:03:38;;;;;;;21.80;12.70;;;;;;;4.13;80.52;101547.59;1658675;85;21509;-72
2021/10/25 07:06:07;;;;;;;8.75;6.65;;;;;;;4.23;80.21;101548.28;1676529;85;21561;-75
2021/10/25 07:08:34;;;;;;;15.30;9.05;;;;;;;4.34;79.83;101551.14;1676453;85;21569;-73
2021/10/25 07:11:02;;;;;;;9.90;6.35;;;;;;;4.41;79.23;101546.84;1654533;85;21114;-72
2021/10/25 07:13:29;;;;;;;4.60;4.03;;;;;;;4.44;78.23;101549.66;1630713;87;20976;-73
2021/10/25 07:16:12;;;;;;;9.88;5.78;;;;;;;4.47;77.46;101551.49;1630480;87;21005;-76
2021/10/25 07:18:47;;;;;;;9.33;6.10;;;;;;;4.48;76.81;101550.50;1660394;85;22082;-75
2021/10/25 07:22:09;;;;;;;7.45;5.60;;;;;;;4.50;76.08;101548.52;1676900;85;21635;-76
2021/10/25 08:10:24;;;;;;;3.72;3.42;;;;;;;5.55;64.67;101550.25;1654569;86;21057;-73
2021/10/25 08:12:58;;;;;;;4.35;3.62;;;;;;;5.64;65.47;101552.72;1653959;86;21505;-74
2021/10/25 08:15:33;;;;;;;5.30;3.90;;;;;;;5.70;64.17;101554.71;1661180;85;20979;-72
2021/10/25 08:17:59;;;;;;;5.20;4.17;;;;;;;5.69;63.37;101551.70;1639160;86;21131;-73
2021/10/25 08:20:24;;;;;;;3.37;3.08;;;;;;;5.74;63.17;101551.19;1639751;86;21283;-73
2021/10/25 08:22:51;;;;;;;4.15;3.42;;;;;;;5.79;62.69;101552.84;1663245;84;21025;-78
2021/10/25 08:25:17;;;;;;;4.80;3.98;;;;;;;5.84;62.64;101545.64;1681701;83;21024;-78
2021/10/25 08:27:55;;;;;;;5.00;3.58;;;;;;;5.89;62.32;101545.98;1593352;89;21135;-76
2021/10/25 08:30:22;;;;;;;3.25;2.95;;;;;;;5.92;61.51;101542.45;1645529;86;21092;-76
2021/10/25 08:33:47;;;;;;;4.15;3.75;;;;;;;5.96;61.13;101546.44;1645199;85;21526;-76
2021/10/25 08:40:44;;;;;;;8.45;3.80;;;;;;;6.08;60.66;101546.39;1645263;86;21562;-76
2021/10/25 08:43:12;;;;;;;4.22;3.00;;;;;;;6.16;60.71;101544.67;1696606;83;21052;-72
2021/10/25 08:45:45;;;;;;;2.50;2.30;;;;;;;6.23;60.21;101552.33;1710876;83;21499;-73
2021/10/25 08:48:09;;;;;;;3.83;2.58;;;;;;;6.30;59.78;101547.92;1669491;84;22220;-74
2021/10/25 08:50:35;;;;;;;4.58;3.30;;;;;;;6.35;59.63;101545.55;1657217;85;21577;-73
2021/10/25 08:53:07;;;;;;;3.10;2.67;;;;;;;6.40;59.25;101547.20;1674195;84;21128;-73
2021/10/25 08:55:35;;;;;;;5.70;2.55;;;;;;;6.45;58.40;101548.84;1656825;85;21056;-75
2021/10/25 08:58:03;;;;;;;3.25;2.60;;;;;;;6.48;57.78;101547.13;1670908;85;21031;-75
2021/10/25 09:00:45;;;;;;;7.12;3.80;;;;;;;6.52;57.55;101542.59;1647960;85;21017;-74
2021/10/25 09:03:14;;;;;;;4.47;3.08;;;;;;;6.57;57.56;101539.38;1669881;85;21034;-75
2021/10/25 09:05:54;;;;;;;4.42;3.62;;;;;;;6.62;57.56;101545.55;1677071;84;21226;-75
2021/10/25 09:08:21;;;;;;;3.33;3.02;;;;;;;6.69;57.30;101547.83;1670540;85;21165;-75
2021/10/25 09:10:48;;;;;;;3.85;3.12;;;;;;;6.74;57.05;101542.27;1643973;86;21552;-73
2021/10/25 09:13:19;;;;;;;4.50;3.20;;;;;;;6.81;56.91;101538.39;1610225;89;21598;-74
2021/10/25 09:15:54;;;;;;;4.47;3.20;;;;;;;6.85;56.33;101536.51;1610361;87;21063;-79
2021/10/25 09:18:40;;;;;;;3.70;3.40;;;;;;;6.90;55.99;101536.80;1633191;87;21550;-71
2021/10/25 09:21:10;;;;;;;4.17;3.72;;;;;;;6.96;55.75;101537.89;1613358;87;21539;-72
2021/10/25 09:23:41;;;;;;;3.67;3.37;;;;;;;7.03;55.74;101532.66;1616600;87;21115;-75
2021/10/25 09:26:12;;;;;;;6.53;3.60;;;;;;;7.07;55.36;101531.28;1635216;87;21539;-75
2021/10/25 09:28:50;;;;;;;3.95;3.55;;;;;;;7.09;55.15;101532.78;1613838;87;21047;-75
2021/10/25 09:31:23;;;;;;;5.40;4.50;;;;;;;7.10;54.88;101525.05;1630575;87;21052;-76
2021/10/25 09:34:00;;;;;;;5.90;4.40;;;;;;;7.06;55.17;101520.25;1628065;88;21198;-75
2021/10/25 09:36:37;;;;;;;4.60;3.90;;;;;;;7.11;55.45;101525.89;1646106;86;21000;-76
2021/10/25 09:39:10;;;;;;;4.30;3.45;;;;;;;7.18;55.02;101522.82;1649151;86;21052;-76
2021/10/25 09:50:10;;;;;;;4.50;3.47;;;;;;;7.31;53.96;101519.83;1646266;86;21236;-70
2021/10/25 09:52:42;;;;;;;3.98;3.58;;;;;;;7.39;53.64;101513.55;1600797;89;21110;-71
2021/10/25 09:55:15;;;;;;;4.58;3.40;;;;;;;7.46;53.73;101519.84;1633261;87;20965;-71
2021/10/25 09:57:51;;;;;;;5.90;3.45;;;;;;;7.45;52.87;101510.97;1621367;87;21157;-70
2021/10/25 10:00:22;;;;;;;5.58;3.77;;;;;;;7.48;53.41;101518.33;1639328;85;21088;-73
2021/10/25 10:02:50;;;;;;;5.90;4.58;;;;;;;7.52;53.33;101515.59;1688989;84;20942;-73
2021/10/25 10:05:25;;;;;;;3.58;3.27;;;;;;;7.59;53.08;101513.31;1610399;87;21101;-73
2021/10/25 10:07:51;;;;;;;3.42;2.90;;;;;;;7.67;52.72;101507.88;1634045;87;21106;-73
2021/10/25 10:10:21;;;;;;;3.62;3.33;;;;;;;7.72;52.33;101499.29;1637856;86;20999;-77
2021/10/25 10:12:51;;;;;;;4.25;2.85;;;;;;;7.78;51.71;101505.21;1631842;86;21109;-77
2021/10/25 10:15:18;;;;;;;3.35;3.05;;;;;;;7.83;51.34;101499.62;1661439;85;21111;-74
2021/10/25 10:17:53;;;;;;;5.10;3.75;;;;;;;7.86;51.44;101499.23;1646643;86;20983;-71
2021/10/25 10:20:30;;;;;;;6.37;3.83;;;;;;;7.93;51.57;101489.11;1634635;87;21076;-70
2021/10/25 10:23:03;;;;;;;4.80;4.05;;;;;;;8.03;51.51;101490.48;1622827;87;20997;-73
2021/10/25 10:25:48;;;;;;;7.83;5.65;;;;;;;8.08;51.10;101484.55;1628624;86;21132;-73
2021/10/25 10:28:18;;;;;;;8.13;5.55;;;;;;;8.04;50.78;101486.78;1642882;85;21038;-73
2021/10/25 10:31:08;;;;;;;3.45;3.12;;;;;;;8.03;51.04;101486.97;1661163;85;20960;-75
2021/10/25 10:33:42;;;;;;;4.58;3.40;;;;;;;8.07;51.11;101482.88;1614344;88;21214;-71
2021/10/25 10:36:16;;;;;;;5.37;3.42;;;;;;;8.14;51.04;101479.27;1649572;86;21060;-71
2021/10/25 10:38:57;;;;;;;3.12;2.77;;;;;;;8.20;51.14;101483.84;1661103;85;21138;-81
2021/10/25 10:41:54;;;;;;;2.70;2.50;;;;;;;8.27;51.31;101479.41;1623615;88;22218;-76
2021/10/25 10:44:26;;;;;;;4.55;2.92;;;;;;;8.42;50.83;101480.72;1577262;88;21063;-77
2021/10/25 10:47:02;;;;;;;4.42;3.08;;;;;;;8.56;50.54;101474.45;1610412;86;21039;-77
2021/10/25 10:49:38;;;;;;;3.27;2.95;;;;;;;8.59;50.06;101474.56;1630862;86;21094;-77
2021/10/25 11:00:00;;;;;;;6.67;3.62;;;;;;;8.91;49.59;101464.63;1533862;89;21057;-73
2021/10/25 11:02:26;;;;;;;10.58;8.43;;;;;;;8.99;49.11;101477.89;1555839;88;21090;-71
2021/10/25 11:04:58;;;;;;;11.38;8.05;;;;;;;9.04;49.22;101467.91;1634520;86;21058;-74
2021/10/25 11:07:24;;;;;;;5.67;5.10;;;;;;;9.11;49.04;101468.80;1584164;89;21119;-70
2021/10/25 11:09:51;;;;;;;5.45;4.50;;;;;;;9.16;48.67;101472.52;1606721;88;21069;-71
2021/10/25 11:12:20;;;;;;;5.15;3.60;;;;;;;9.11;48.18;101466.91;1604933;88;21105;-76
2021/10/25 11:14:47;;;;;;;5.55;3.72;;;;;;;9.07;48.41;101464.81;1621243;87;21071;-74
2021/10/25 11:17:16;;;;;;;3.67;3.37;;;;;;;9.09;48.15;101462.78;1586553;89;21165;-74
2021/10/25 11:19:49;;;;;;;5.72;4.17;;;;;;;9.17;48.31;101467.98;1604053;89;21032;-73
2021/10/25 11:22:35;;;;;;;9.45;5.47;;;;;;;9.27;47.96;101464.95;1577657;89;21071;-72
2021/10/25 11:25:05;;;;;;;7.35;4.12;;;;;;;9.31;47.64;101461.66;1611916;87;21553;-71
2021/10/25 11:27:34;;;;;;;6.85;4.75;;;;;;;9.36;47.61;101460.55;1594693;89;21548;-73
2021/10/25 11:30:11;;;;;;;5.28;3.80;;;;;;;9.34;47.20;101454.57;1606123;87;21849;-73
2021/10/25 11:32:39;;;;;;;5.28;3.95;;;;;;;9.32;47.21;101443.70;1561091;90;21019;-73
2021/10/25 11:35:07;;;;;;;4.33;3.75;;;;;;;9.42;47.53;101446.85;1578826;90;21140;-73
2021/10/25 11:37:34;;;;;;;8.98;6.08;;;;;;;9.46;47.36;101452.14;1578852;90;21617;-72
2021/10/25 11:40:08;;;;;;;5.78;4.72;;;;;;;9.50;47.09;101445.33;1574059;91;21132;-70
2021/10/25 11:42:39;;;;;;;4.72;4.17;;;;;;;9.42;46.64;101442.31;1615083;88;21334;-73
2021/10/25 11:45:10;;;;;;;4.20;3.52;;;;;;;9.35;46.96;101440.64;1581824;90;21380;-71
2021/10/25 11:47:41;;;;;;;4.83;3.90;;;;;;;9.38;46.88;101435.69;1559716;90;21049;-73
2021/10/25 11:50:15;;;;;;;5.08;3.72;;;;;;;9.44;46.92;101434.06;1621622;88;21052;-72
2021/10/25 11:52:54;;;;;;;6.12;4.45;;;;;;;9.47;46.58;101438.52;1656890;85;21119;-72
2021/10/25 11:55:25;;;;;;;8.63;5.95;;;;;;;9.52;46.60;101433.37;1660085;85;21006;-72
2021/10/25 11:57:56;;;;;;;6.22;4.97;;;;;;;9.61;46.49;101430.83;1660192;85;21022;-71
2021/10/25 12:00:24;;;;;;;5.45;4.58;;;;;;;9.76;46.14;101432.02;1611173;88;21536;-71
2021/10/25 12:02:58;;;;;;;7.62;5.08;;;;;;;9.87;45.61;101426.06;1691079;84;21511;-70
2021/10/25 12:05:26;;;;;;;6.53;4.22;;;;;;;10.01;45.74;101426.92;1691113;83;21014;-72
2021/10/25 12:07:54;;;;;;;4.42;3.90;;;;;;;10.20;45.24;101419.95;1660138;85;21859;-73
2021/10/25 12:10:22;;;;;;;5.03;4.25;;;;;;;10.33;44.56;101417.27;1659880;85;21015;-73
2021/10/25 12:12:54;;;;;;;3.77;3.27;;;;;;;10.34;43.94;101410.34;1674611;84;21498;-72
2021/10/25 12:15:23;;;;;;;3.83;3.15;;;;;;;10.31;43.27;101416.66;1660673;85;21064;-74
2021/10/25 12:17:49;;;;;;;7.75;4.08;;;;;;;10.29;43.52;101417.38;1678139;85;21073;-73
2021/10/25 12:20:32;;;;;;;8.80;4.67;;;;;;;10.28;43.40;101411.16;1653768;85;21082;-76
2021/10/25 12:23:18;;;;;;;5.43;4.63;;;;;;;10.25;43.69;101406.20;1654214;85;21041;-74
2021/10/25 12:25:59;;;;;;;4.15;3.55;;;;;;;10.20;43.71;101405.16;1654188;85;20971;-76
2021/10/25 12:28:26;;;;;;;4.20;3.80;;;;;;;10.24;43.49;101404.55;1677162;85;21002;-72
2021/10/25 12:31:07;;;;;;;3.95;3.58;;;;;;;10.20;43.15;101405.99;1673708;85;21526;-71
2021/10/25 12:33:37;;;;;;;8.28;4.53;;;;;;;10.18;43.04;101404.53;1625239;86;21812;-72
2021/10/25 12:36:18;;;;;;;5.95;4.12;;;;;;;10.12;43.18;101397.27;1653639;85;21655;-74
2021/10/25 12:38:47;;;;;;;4.58;3.83;;;;;;;10.11;43.15;101394.27;1677997;85;21072;-72
2021/10/25 12:41:13;;;;;;;4.53;3.65;;;;;;;10.07;42.90;101391.97;1677871;85;21022;-72
2021/10/25 12:43:42;;;;;;;4.05;3.42;;;;;;;10.07;43.21;101385.24;1678122;85;21581;-74
2021/10/25 12:46:15;;;;;;;4.55;4.10;;;;;;;10.14;43.01;101379.89;1677702;85;21222;-72
2021/10/25 12:48:47;;;;;;;8.43;4.75;;;;;;;10.17;42.09;101386.22;1672353;84;21596;-74
2021/10/25 12:51:13;;;;;;;6.30;3.67;;;;;;;10.19;42.19;101386.02;1674116;84;21567;-72
2021/10/25 12:53:45;;;;;;;5.58;4.78;;;;;;;10.28;41.89;101386.95;1666750;84;21037;-73
2021/10/25 12:56:12;;;;;;;7.37;4.95;;;;;;;10.29;41.48;101380.55;1677768;84;21076;-72
2021/10/25 12:58:39;;;;;;;8.35;4.75;;;;;;;10.33;41.52;101383.65;1634639;86;22219;-71
2021/10/25 13:01:12;;;;;;;9.00;4.67;;;;;;;10.37;41.16;101378.16;1619355;87;21064;-70
2021/10/25 13:03:47;;;;;;;9.10;5.40;;;;;;;10.41;41.00;101381.57;1671403;85;21050;-74
2021/10/25 13:06:13;;;;;;;7.67;4.97;;;;;;;10.49;40.61;101380.55;1627328;85;21038;-76
2021/10/25 13:08:40;;;;;;;7.75;5.90;;;;;;;10.49;40.14;101381.39;1682713;85;21097;-76
2021/10/25 13:11:13;;;;;;;9.63;5.35;;;;;;;10.47;40.02;101373.20;1658882;85;21250;-76
2021/10/25 13:13:43;;;;;;;9.20;4.97;;;;;;;10.45;40.21;101376.08;1663517;85;21009;-74
2021/10/25 13:16:20;;;;;;;6.78;5.30;;;;;;;10.46;40.36;101373.71;1681232;85;20929;-77
2021/10/25 13:18:46;;;;;;;10.25;6.05;;;;;;;10.48;40.55;101376.20;1682318;85;21049;-75
2021/10/25 13:21:12;;;;;;;12.30;5.53;;;;;;;10.52;40.99;101373.91;1650515;86;21054;-71
2021/10/25 13:23:40;;;;;;;10.80;7.42;;;;;;;10.54;41.08;101377.23;1645169;86;22039;-70